createdAt,value
2022-08-10T00:02:28.079Z,18.47
2022-08-10T00:07:36.259Z,18.43
2022-08-10T00:12:53.485Z,18.38
2022-08-10T00:17:58.917Z,18.36
2022-08-10T00:23:01.722Z,18.28
2022-08-10T00:28:04.291Z,18.23
2022-08-10T00:33:06.085Z,18.23
2022-08-10T00:38:08.740Z,18.19
2022-08-10T00:43:12.717Z,18.17
2022-08-10T00:48:14.526Z,18.12
2022-08-10T00:53:16.396Z,18.07
2022-08-10T00:58:25.721Z,18.04
2022-08-10T01:04:40.219Z,17.95
2022-08-10T01:09:08.973Z,17.97
2022-08-10T01:14:30.907Z,17.92
2022-08-10T01:19:54.454Z,17.85
2022-08-10T01:25:32.842Z,17.82
2022-08-10T01:30:37.580Z,17.77
2022-08-10T01:35:46.784Z,17.68
2022-08-10T01:41:05.599Z,17.64
2022-08-10T01:46:08.344Z,17.55
2022-08-10T01:51:24.574Z,17.48
2022-08-10T01:56:33.677Z,17.41
2022-08-10T02:01:40.841Z,17.35
2022-08-10T02:06:51.939Z,17.29
2022-08-10T02:12:07.565Z,17.21
2022-08-10T02:17:57.773Z,17.18
2022-08-10T02:22:41.753Z,17.16
2022-08-10T02:27:47.166Z,17.16
2022-08-10T02:32:55.359Z,17.14
2022-08-10T02:38:02.560Z,17.07
2022-08-10T02:45:20.721Z,17.00
2022-08-10T02:49:09.150Z,16.92
2022-08-10T02:54:16.301Z,16.89
2022-08-10T02:59:25.749Z,16.83
2022-08-10T03:04:57.205Z,16.76
2022-08-10T03:09:58.730Z,16.64
2022-08-10T03:15:00.990Z,16.56
2022-08-10T03:20:38.373Z,16.49
2022-08-10T03:25:31.402Z,16.41
2022-08-10T03:30:35.434Z,16.35
2022-08-10T03:35:41.793Z,16.28
2022-08-10T03:41:16.182Z,16.21
2022-08-10T03:46:20.158Z,16.19
2022-08-10T03:51:24.753Z,16.15
2022-08-10T03:56:32.836Z,16.09
2022-08-10T04:02:45.312Z,16.03
2022-08-10T04:06:59.902Z,16.55
2022-08-10T04:12:04.168Z,16.24
2022-08-10T04:17:13.929Z,16.13
2022-08-10T04:22:22.602Z,16.07
2022-08-10T04:27:25.726Z,16.04
2022-08-10T04:32:31.937Z,16.04
2022-08-10T04:37:37.383Z,16.06
2022-08-10T04:42:53.228Z,16.08
2022-08-10T04:48:03.744Z,16.12
2022-08-10T04:53:08.695Z,16.21
2022-08-10T04:58:13.079Z,16.29
2022-08-10T05:03:17.326Z,16.40
2022-08-10T05:08:21.347Z,16.47
2022-08-10T05:13:23.087Z,16.59
2022-08-10T05:18:24.942Z,16.74
2022-08-10T05:23:26.864Z,16.89
2022-08-10T05:28:35.304Z,17.00
2022-08-10T05:33:40.929Z,17.15
2022-08-10T05:38:47.555Z,17.27
2022-08-10T05:43:49.741Z,17.38
2022-08-10T05:48:56.837Z,17.54
2022-08-10T05:54:06.802Z,17.67
2022-08-10T05:59:11.265Z,17.79
2022-08-10T06:04:20.238Z,17.89
2022-08-10T06:09:24.249Z,17.95
2022-08-10T06:14:52.954Z,18.05
2022-08-10T06:20:06.640Z,18.21
2022-08-10T06:30:35.078Z,18.42
2022-08-10T06:35:36.969Z,18.51
2022-08-10T06:40:40.854Z,18.60
2022-08-10T06:46:08.089Z,18.72
2022-08-10T06:51:18.214Z,18.80
2022-08-10T06:56:36.128Z,18.88
2022-08-10T07:01:43.839Z,18.96
2022-08-10T07:06:53.886Z,19.04
2022-08-10T07:12:16.114Z,19.15
2022-08-10T07:17:22.818Z,19.24
2022-08-10T07:23:27.284Z,19.35
2022-08-10T07:28:00.815Z,19.43
2022-08-10T07:33:07.469Z,19.53
2022-08-10T07:38:18.079Z,19.59
2022-08-10T07:43:23.604Z,19.68
2022-08-10T07:48:31.521Z,19.78
2022-08-10T07:53:39.984Z,19.87
2022-08-10T07:58:51.919Z,20.03
2022-08-10T08:04:10.682Z,20.20
2022-08-10T08:09:15.822Z,20.27
2022-08-10T08:14:22.037Z,20.42
2022-08-10T08:19:28.585Z,20.53
2022-08-10T08:24:44.277Z,20.62
2022-08-10T08:29:49.441Z,20.71
2022-08-10T08:34:59.055Z,20.82
2022-08-10T08:40:10.901Z,20.91
2022-08-10T08:46:00.826Z,21.07
2022-08-10T08:52:11.363Z,21.20
2022-08-10T08:57:46.368Z,21.32
2022-08-10T09:03:00.658Z,21.47
2022-08-10T09:08:35.478Z,21.52
2022-08-10T09:13:41.845Z,21.69
2022-08-10T09:19:45.033Z,21.86
2022-08-10T09:24:57.353Z,21.94
2022-08-10T09:30:16.303Z,22.06
2022-08-10T09:36:21.607Z,22.13
2022-08-10T09:41:13.097Z,22.17
2022-08-10T09:46:37.548Z,22.31
2022-08-10T09:52:04.919Z,22.46
2022-08-10T09:57:44.747Z,22.52
2022-08-10T10:02:58.431Z,22.59
2022-08-10T10:08:23.730Z,22.68
2022-08-10T10:13:41.536Z,22.84
2022-08-10T10:19:09.356Z,23.15
2022-08-10T10:24:34.530Z,23.40
2022-08-10T10:30:11.607Z,23.48
2022-08-10T10:35:34.967Z,23.79
2022-08-10T10:40:45.614Z,23.87
2022-08-10T10:45:56.886Z,23.96
2022-08-10T10:51:35.858Z,23.98
2022-08-10T10:56:56.000Z,24.10
2022-08-10T11:02:21.911Z,24.17
2022-08-10T11:07:34.154Z,24.24
2022-08-10T11:12:51.086Z,24.41
2022-08-10T11:18:08.570Z,24.41
2022-08-10T11:23:20.836Z,24.45
2022-08-10T11:28:41.392Z,24.53
2022-08-10T11:34:48.256Z,24.70
2022-08-10T11:39:57.746Z,24.94
2022-08-10T11:45:03.303Z,25.31
2022-08-10T11:50:15.748Z,25.62
2022-08-10T11:55:19.486Z,25.79
2022-08-10T12:00:24.758Z,26.08
2022-08-10T12:05:53.730Z,26.24
2022-08-10T12:10:57.827Z,26.40
2022-08-10T12:16:21.300Z,26.66
2022-08-10T12:21:31.934Z,26.80
2022-08-10T12:26:38.540Z,27.13
2022-08-10T12:31:44.172Z,27.29
2022-08-10T12:36:55.159Z,27.68
2022-08-10T12:42:39.292Z,28.08
2022-08-10T12:47:50.015Z,28.35
2022-08-10T12:52:55.805Z,28.71
2022-08-10T12:57:58.466Z,29.13
2022-08-10T13:03:03.339Z,29.64
2022-08-10T13:08:28.149Z,30.27
2022-08-10T13:13:38.389Z,30.80
2022-08-10T13:18:44.474Z,31.18
2022-08-10T13:24:03.519Z,31.69
2022-08-10T13:29:16.803Z,31.99
2022-08-10T13:34:42.222Z,32.28
2022-08-10T13:39:58.471Z,32.46
2022-08-10T13:45:11.977Z,32.49
2022-08-10T13:50:33.085Z,32.28
2022-08-10T13:55:54.886Z,32.53
2022-08-10T14:00:59.797Z,32.43
2022-08-10T14:06:03.814Z,32.54
2022-08-10T14:11:13.571Z,32.21
2022-08-10T14:16:17.895Z,32.54
2022-08-10T14:21:24.563Z,32.53
2022-08-10T14:26:29.819Z,33.03
2022-08-10T14:31:37.457Z,33.24
2022-08-10T14:36:58.385Z,33.88
2022-08-10T14:42:13.713Z,34.62
2022-08-10T14:47:55.925Z,35.02
2022-08-10T14:52:50.429Z,35.38
2022-08-10T14:58:17.184Z,35.68
2022-08-10T15:03:59.241Z,36.35
2022-08-10T15:08:47.207Z,36.42
2022-08-10T15:14:12.415Z,36.57
2022-08-10T15:20:00.730Z,36.81
2022-08-10T15:25:24.657Z,37.26
2022-08-10T15:30:32.006Z,38.06
2022-08-10T15:35:56.140Z,38.22
2022-08-10T15:40:59.135Z,37.91
2022-08-10T15:46:10.691Z,38.58
2022-08-10T15:51:22.426Z,38.67
2022-08-10T15:56:39.941Z,38.76
2022-08-10T16:02:12.944Z,39.12
2022-08-10T16:07:45.464Z,39.24
2022-08-10T16:13:01.665Z,39.28
2022-08-10T16:18:09.870Z,39.09
2022-08-10T16:23:19.219Z,39.44
2022-08-10T16:28:31.604Z,39.32
2022-08-10T16:33:55.108Z,39.10
2022-08-10T16:38:57.795Z,38.69
2022-08-10T16:44:01.185Z,37.66
2022-08-10T16:49:06.074Z,35.15
2022-08-10T16:54:12.345Z,33.21
2022-08-10T16:59:20.711Z,31.67
2022-08-10T17:04:30.427Z,30.56
2022-08-10T17:09:35.747Z,29.74
2022-08-10T17:14:43.403Z,28.91
2022-08-10T17:19:46.026Z,28.42
2022-08-10T17:24:55.412Z,27.81
2022-08-10T17:30:03.491Z,27.39
2022-08-10T17:35:09.846Z,26.99
2022-08-10T17:40:23.533Z,26.69
2022-08-10T17:45:47.913Z,26.41
2022-08-10T17:50:54.201Z,26.12
2022-08-10T17:56:03.250Z,25.91
2022-08-10T18:01:41.322Z,25.64
2022-08-10T18:06:31.315Z,25.52
2022-08-10T18:11:34.282Z,25.25
2022-08-10T18:16:41.614Z,25.09
2022-08-10T18:21:50.428Z,24.95
2022-08-10T18:26:56.289Z,24.75
2022-08-10T18:32:01.355Z,24.67
2022-08-10T18:37:07.194Z,24.57
2022-08-10T18:42:22.243Z,24.52
2022-08-10T18:47:36.752Z,24.33
2022-08-10T18:52:41.138Z,24.91
2022-08-10T18:58:33.843Z,24.22
2022-08-10T19:04:07.116Z,24.62
2022-08-10T19:09:47.013Z,24.07
2022-08-10T19:15:06.542Z,23.82
2022-08-10T19:20:26.163Z,23.55
2022-08-10T19:26:42.865Z,23.45
2022-08-10T19:31:19.613Z,23.24
2022-08-10T19:36:23.819Z,23.17
2022-08-10T19:41:44.394Z,23.02
2022-08-10T19:47:12.084Z,22.84
2022-08-10T19:52:23.281Z,22.69
2022-08-10T19:57:36.220Z,22.57
2022-08-10T20:02:46.655Z,22.47
2022-08-10T20:07:59.593Z,22.36
2022-08-10T20:13:33.196Z,22.32
2022-08-10T20:18:44.230Z,22.22
2022-08-10T20:24:09.204Z,22.31
2022-08-10T20:29:16.110Z,22.22
2022-08-10T20:34:28.722Z,22.11
2022-08-10T20:40:01.799Z,22.00
2022-08-10T20:45:22.749Z,21.93
2022-08-10T20:50:46.041Z,21.89
2022-08-10T20:56:12.131Z,21.85
2022-08-10T21:01:17.315Z,21.71
2022-08-10T21:06:53.590Z,21.69
2022-08-10T21:12:15.653Z,21.67
2022-08-10T21:17:22.104Z,21.61
2022-08-10T21:22:39.344Z,21.59
2022-08-10T21:27:59.436Z,21.55
2022-08-10T21:33:06.674Z,21.52
2022-08-10T21:38:21.318Z,21.44
2022-08-10T21:44:09.235Z,21.44
2022-08-10T21:49:47.916Z,21.39
2022-08-10T21:55:22.759Z,21.35
2022-08-10T22:00:43.375Z,21.28
2022-08-10T22:06:08.765Z,21.26
2022-08-10T22:11:31.059Z,21.24
2022-08-10T22:17:04.907Z,21.23
2022-08-10T22:22:32.083Z,21.15
2022-08-10T22:27:56.193Z,21.11
2022-08-10T22:33:41.492Z,21.09
2022-08-10T22:40:13.101Z,21.03
2022-08-10T22:45:13.666Z,20.96
2022-08-10T22:50:28.228Z,20.90
2022-08-10T22:55:52.274Z,20.88
2022-08-10T23:01:05.052Z,20.84
2022-08-10T23:06:10.452Z,20.78
2022-08-10T23:11:23.061Z,20.77
2022-08-10T23:16:47.192Z,20.70
2022-08-10T23:22:09.916Z,20.65
2022-08-10T23:27:37.418Z,20.63
2022-08-10T23:32:36.786Z,20.59
2022-08-10T23:37:42.019Z,20.51
2022-08-10T23:42:50.470Z,20.45
2022-08-10T23:47:57.649Z,20.37
2022-08-10T23:53:02.774Z,20.29
2022-08-10T23:58:31.707Z,20.24
